createdAt,value
2023-02-15T00:00:11.503Z,28.75
2023-02-15T00:02:39.436Z,27.95
2023-02-15T00:07:43.001Z,26.75
2023-02-15T00:10:12.014Z,28.85
2023-02-15T00:12:39.444Z,26.80
2023-02-15T00:15:06.915Z,30.48
2023-02-15T00:17:34.130Z,28.27
2023-02-15T00:20:01.451Z,27.85
2023-02-15T00:22:28.690Z,26.88
2023-02-15T00:24:55.891Z,29.65
2023-02-15T00:27:23.326Z,29.90
2023-02-15T00:29:50.608Z,27.67
2023-02-15T00:32:17.873Z,26.95
2023-02-15T00:34:45.493Z,29.00
2023-02-15T00:37:12.701Z,27.75
2023-02-15T00:39:39.999Z,27.30
2023-02-15T00:42:07.255Z,27.15
2023-02-15T00:44:34.570Z,27.65
2023-02-15T00:47:01.868Z,26.23
2023-02-15T00:49:29.156Z,27.55
2023-02-15T00:51:56.466Z,26.38
2023-02-15T00:54:23.727Z,28.77
2023-02-15T00:56:50.979Z,28.05
2023-02-15T00:59:18.229Z,26.45
2023-02-15T01:01:45.490Z,26.35
2023-02-15T01:04:12.884Z,25.67
2023-02-15T01:06:40.327Z,24.50
2023-02-15T01:09:07.623Z,28.48
2023-02-15T01:11:34.835Z,25.60
2023-02-15T01:14:04.140Z,26.35
2023-02-15T01:16:31.497Z,23.17
2023-02-15T01:18:58.832Z,26.02
2023-02-15T01:21:27.080Z,24.70
2023-02-15T01:23:54.860Z,26.60
2023-02-15T01:26:22.248Z,25.92
2023-02-15T01:28:49.843Z,25.30
2023-02-15T01:31:19.392Z,24.77
2023-02-15T01:33:47.927Z,24.42
2023-02-15T01:36:15.564Z,25.48
2023-02-15T01:38:43.046Z,23.48
2023-02-15T01:41:27.033Z,25.25
2023-02-15T01:43:56.063Z,23.25
2023-02-15T01:46:49.357Z,23.40
2023-02-15T01:49:20.510Z,24.10
2023-02-15T01:51:49.852Z,23.33
2023-02-15T01:54:25.524Z,22.20
2023-02-15T01:56:53.715Z,24.92
2023-02-15T01:59:24.578Z,23.05
2023-02-15T02:01:55.057Z,20.25
2023-02-15T02:04:47.344Z,22.67
2023-02-15T02:07:18.048Z,23.00
2023-02-15T02:09:46.860Z,21.55
2023-02-15T02:12:14.979Z,23.38
2023-02-15T02:14:43.161Z,22.10
2023-02-15T02:17:38.414Z,24.10
2023-02-15T02:20:27.434Z,22.13
2023-02-15T02:23:25.786Z,22.95
2023-02-15T02:26:18.506Z,23.20
2023-02-15T02:28:48.749Z,22.52
2023-02-15T02:31:21.670Z,21.67
2023-02-15T02:34:07.544Z,21.15
2023-02-15T02:36:58.703Z,21.63
2023-02-15T02:39:58.087Z,21.38
2023-02-15T02:42:34.540Z,22.20
2023-02-15T02:45:17.941Z,20.85
2023-02-15T02:47:49.495Z,21.73
2023-02-15T02:50:22.912Z,22.63
2023-02-15T02:52:53.109Z,22.30
2023-02-15T02:55:30.176Z,22.45
2023-02-15T02:58:04.710Z,21.40
2023-02-15T03:00:41.804Z,21.15
2023-02-15T03:03:20.280Z,20.50
2023-02-15T03:05:51.064Z,19.52
2023-02-15T03:08:23.136Z,20.77
2023-02-15T03:10:54.519Z,20.55
2023-02-15T03:13:23.155Z,19.90
2023-02-15T03:16:11.311Z,20.20
2023-02-15T03:18:53.643Z,19.08
2023-02-15T03:21:26.730Z,20.58
2023-02-15T03:23:59.335Z,20.48
2023-02-15T03:26:27.878Z,21.75
2023-02-15T03:28:59.908Z,19.85
2023-02-15T03:31:32.815Z,18.98
2023-02-15T03:34:04.443Z,21.08
2023-02-15T03:37:09.659Z,19.40
2023-02-15T03:40:26.271Z,19.73
2023-02-15T03:43:23.177Z,20.85
2023-02-15T03:45:55.942Z,20.73
2023-02-15T03:48:38.333Z,18.50
2023-02-15T03:51:31.961Z,19.88
2023-02-15T03:54:00.385Z,18.55
2023-02-15T03:56:27.972Z,19.50
2023-02-15T03:59:13.916Z,20.50
2023-02-15T04:01:59.356Z,19.63
2023-02-15T04:04:39.054Z,20.40
2023-02-15T04:07:09.518Z,18.00
2023-02-15T04:09:55.802Z,19.60
2023-02-15T04:12:23.210Z,18.75
2023-02-15T04:15:10.250Z,19.45
2023-02-15T04:17:38.659Z,19.05
2023-02-15T04:20:25.209Z,18.20
2023-02-15T04:23:10.919Z,17.70
2023-02-15T04:25:38.205Z,18.70
2023-02-15T04:28:05.598Z,18.48
2023-02-15T04:30:33.049Z,18.02
2023-02-15T04:33:00.268Z,19.38
2023-02-15T04:35:27.600Z,16.75
2023-02-15T04:37:54.839Z,17.63
2023-02-15T04:40:22.146Z,16.92
2023-02-15T04:42:50.221Z,17.25
2023-02-15T04:45:18.226Z,15.98
2023-02-15T04:47:45.657Z,16.63
2023-02-15T04:50:13.090Z,16.45
2023-02-15T04:52:40.709Z,16.95
2023-02-15T04:55:08.307Z,16.85
2023-02-15T04:57:35.880Z,17.35
2023-02-15T05:00:03.732Z,16.33
2023-02-15T05:02:31.053Z,15.35
2023-02-15T05:04:58.468Z,16.98
2023-02-15T05:07:25.780Z,16.45
2023-02-15T05:09:52.997Z,18.92
2023-02-15T05:12:20.214Z,16.40
2023-02-15T05:14:47.461Z,16.55
2023-02-15T05:17:14.825Z,16.20
2023-02-15T05:19:42.078Z,17.08
2023-02-15T05:22:09.340Z,16.65
2023-02-15T05:25:11.815Z,17.20
2023-02-15T05:27:57.877Z,15.90
2023-02-15T05:34:16.101Z,16.58
2023-02-15T05:36:43.405Z,17.17
2023-02-15T05:39:10.642Z,17.25
2023-02-15T05:41:38.003Z,16.15
2023-02-15T05:44:05.573Z,16.23
2023-02-15T05:46:32.898Z,16.25
2023-02-15T05:49:00.239Z,16.02
2023-02-15T05:51:27.586Z,17.05
2023-02-15T05:53:54.876Z,17.35
2023-02-15T05:56:22.122Z,16.17
2023-02-15T05:58:49.484Z,18.05
2023-02-15T06:01:19.694Z,16.02
2023-02-15T06:03:47.669Z,17.77
2023-02-15T06:06:15.406Z,16.98
2023-02-15T06:08:43.047Z,19.10
2023-02-15T06:11:10.381Z,17.60
2023-02-15T06:13:38.925Z,17.70
2023-02-15T06:16:07.755Z,18.08
2023-02-15T06:18:35.780Z,19.50
2023-02-15T06:21:03.422Z,18.92
2023-02-15T06:23:30.805Z,18.67
2023-02-15T06:25:58.238Z,17.02
2023-02-15T06:28:26.562Z,17.35
2023-02-15T06:30:54.387Z,17.83
2023-02-15T06:33:22.429Z,19.63
2023-02-15T06:35:49.751Z,17.58
2023-02-15T06:38:17.064Z,20.10
2023-02-15T06:40:44.310Z,18.13
2023-02-15T06:43:11.591Z,20.90
2023-02-15T06:45:38.877Z,25.98
2023-02-15T06:48:08.452Z,26.55
2023-02-15T06:50:36.346Z,23.80
2023-02-15T06:53:03.820Z,22.88
2023-02-15T06:55:31.112Z,23.38
2023-02-15T06:57:58.399Z,25.75
2023-02-15T07:00:25.863Z,27.52
2023-02-15T07:03:00.264Z,26.77
2023-02-15T07:05:32.161Z,26.42
2023-02-15T07:08:00.464Z,25.05
2023-02-15T07:10:28.580Z,24.45
2023-02-15T07:12:55.863Z,21.73
2023-02-15T07:15:23.629Z,22.70
2023-02-15T07:17:50.994Z,24.27
2023-02-15T07:20:22.457Z,24.23
2023-02-15T07:22:50.188Z,25.27
2023-02-15T07:25:18.302Z,27.80
2023-02-15T07:27:46.008Z,31.23
2023-02-15T07:30:16.364Z,22.65
2023-02-15T07:33:05.536Z,23.02
2023-02-15T07:35:33.553Z,26.55
2023-02-15T07:38:01.669Z,24.88
2023-02-15T07:40:28.886Z,26.75
2023-02-15T07:43:00.096Z,26.02
2023-02-15T07:45:27.936Z,25.60
2023-02-15T07:47:55.204Z,25.98
2023-02-15T07:50:22.569Z,24.65
2023-02-15T07:52:49.814Z,24.02
2023-02-15T07:55:17.132Z,24.23
2023-02-15T07:57:45.970Z,23.20
2023-02-15T08:00:14.936Z,21.33
2023-02-15T08:02:42.489Z,24.00
2023-02-15T08:05:09.772Z,27.65
2023-02-15T08:07:37.065Z,26.70
2023-02-15T08:10:04.547Z,24.00
2023-02-15T08:12:31.816Z,24.55
2023-02-15T08:14:59.587Z,23.73
2023-02-15T08:17:26.882Z,27.85
2023-02-15T08:19:54.206Z,26.00
2023-02-15T08:22:21.445Z,26.20
2023-02-15T08:24:48.764Z,22.55
2023-02-15T08:27:16.061Z,23.08
2023-02-15T08:29:43.994Z,26.23
2023-02-15T08:32:13.196Z,23.08
2023-02-15T08:34:42.393Z,26.85
2023-02-15T08:37:10.359Z,23.35
2023-02-15T08:39:37.983Z,24.40
2023-02-15T08:42:05.437Z,25.25
2023-02-15T08:44:32.751Z,23.75
2023-02-15T08:47:04.504Z,26.35
2023-02-15T08:49:32.528Z,26.88
2023-02-15T08:52:00.619Z,22.63
2023-02-15T08:54:27.868Z,24.38
2023-02-15T08:56:55.235Z,25.20
2023-02-15T08:59:24.081Z,28.63
2023-02-15T09:01:52.948Z,26.77
2023-02-15T09:04:21.785Z,25.27
2023-02-15T09:06:50.155Z,24.45
2023-02-15T09:09:20.883Z,26.08
2023-02-15T09:11:56.029Z,34.13
2023-02-15T09:14:27.588Z,30.08
2023-02-15T09:16:55.374Z,23.75
2023-02-15T09:19:24.617Z,21.33
2023-02-15T09:21:52.504Z,22.10
2023-02-15T09:24:20.078Z,23.10
2023-02-15T09:26:49.021Z,24.13
2023-02-15T09:29:17.592Z,24.55
2023-02-15T09:31:50.782Z,26.23
2023-02-15T09:34:20.472Z,26.80
2023-02-15T09:36:48.269Z,24.80
2023-02-15T09:39:26.384Z,24.08
2023-02-15T09:42:02.539Z,27.10
2023-02-15T09:44:51.432Z,30.05
2023-02-15T09:47:55.758Z,27.60
2023-02-15T09:50:32.425Z,27.73
2023-02-15T09:53:22.664Z,26.17
2023-02-15T09:56:02.142Z,25.83
2023-02-15T09:58:44.977Z,27.30
2023-02-15T10:01:50.646Z,24.55
2023-02-15T10:04:46.412Z,27.35
2023-02-15T10:07:32.440Z,25.48
2023-02-15T10:10:22.320Z,26.13
2023-02-15T10:13:07.558Z,25.75
2023-02-15T10:16:06.507Z,23.95
2023-02-15T10:19:02.064Z,27.58
2023-02-15T10:21:41.965Z,25.38
2023-02-15T10:24:28.622Z,27.58
2023-02-15T10:27:02.631Z,28.23
2023-02-15T10:29:37.491Z,24.80
2023-02-15T10:32:27.107Z,26.85
2023-02-15T10:35:11.325Z,26.95
2023-02-15T10:38:17.636Z,23.03
2023-02-15T10:41:21.692Z,26.70
2023-02-15T10:44:10.215Z,26.25
2023-02-15T10:47:04.900Z,27.17
2023-02-15T10:50:07.963Z,25.45
2023-02-15T10:53:02.950Z,27.80
2023-02-15T10:55:53.665Z,26.55
2023-02-15T10:58:29.515Z,26.52
2023-02-15T11:01:20.973Z,28.27
2023-02-15T11:04:03.434Z,26.52
2023-02-15T11:06:32.121Z,27.15
2023-02-15T11:09:09.097Z,28.42
2023-02-15T11:11:41.501Z,25.63
2023-02-15T11:14:34.692Z,27.23
2023-02-15T11:17:10.849Z,24.45
2023-02-15T11:20:02.232Z,24.52
2023-02-15T11:22:31.571Z,24.52
2023-02-15T11:25:01.431Z,25.50
2023-02-15T11:27:34.114Z,27.60
2023-02-15T11:30:11.706Z,30.00
2023-02-15T11:32:47.375Z,28.25
2023-02-15T11:35:14.553Z,24.83
2023-02-15T11:37:55.119Z,26.80
2023-02-15T11:40:45.390Z,28.55
2023-02-15T11:43:26.044Z,26.25
2023-02-15T11:45:53.603Z,26.00
2023-02-15T11:48:20.948Z,24.95
2023-02-15T11:50:48.567Z,25.83
2023-02-15T11:53:19.338Z,26.15
2023-02-15T11:55:49.319Z,27.45
2023-02-15T11:58:19.317Z,25.75
2023-02-15T12:00:50.116Z,26.92
2023-02-15T12:03:34.912Z,25.40
2023-02-15T12:06:05.643Z,24.70
2023-02-15T12:08:52.344Z,28.92
2023-02-15T12:11:34.869Z,24.92
2023-02-15T12:14:07.800Z,24.70
2023-02-15T12:16:53.984Z,26.85
2023-02-15T12:19:42.869Z,27.50
2023-02-15T12:22:28.750Z,24.52
2023-02-15T12:25:01.335Z,22.83
2023-02-15T12:27:35.469Z,26.10
2023-02-15T12:30:17.749Z,24.85
2023-02-15T12:33:03.144Z,25.40
2023-02-15T12:35:33.523Z,25.38
2023-02-15T12:38:13.089Z,26.45
2023-02-15T12:40:41.143Z,24.08
2023-02-15T12:43:39.742Z,28.33
2023-02-15T12:46:19.061Z,25.00
2023-02-15T12:48:46.346Z,24.23
2023-02-15T12:51:16.513Z,22.90
2023-02-15T12:53:45.225Z,22.55
2023-02-15T12:56:12.662Z,23.92
2023-02-15T12:58:41.905Z,24.58
2023-02-15T13:01:26.538Z,23.60
2023-02-15T13:03:58.700Z,21.35
2023-02-15T13:06:27.704Z,24.90
2023-02-15T13:08:58.458Z,22.92
2023-02-15T13:11:35.449Z,24.40
2023-02-15T13:14:17.068Z,21.45
2023-02-15T13:16:47.874Z,23.15
2023-02-15T13:19:24.342Z,24.13
2023-02-15T13:21:54.056Z,23.58
2023-02-15T13:24:42.051Z,24.27
2023-02-15T13:27:23.015Z,26.50
2023-02-15T13:29:54.736Z,22.52
2023-02-15T13:32:41.849Z,24.20
2023-02-15T13:35:17.097Z,22.80
2023-02-15T13:38:21.828Z,23.13
2023-02-15T13:41:04.961Z,22.45
2023-02-15T13:43:59.491Z,24.23
2023-02-15T13:46:47.774Z,24.52
2023-02-15T13:49:53.396Z,24.33
2023-02-15T13:52:25.014Z,23.95
2023-02-15T13:55:04.432Z,22.00
2023-02-15T13:57:59.666Z,22.88
2023-02-15T14:00:50.393Z,37.53
2023-02-15T14:03:42.346Z,35.42
2023-02-15T14:06:27.970Z,23.30
2023-02-15T14:09:26.654Z,26.17
2023-02-15T14:12:30.795Z,28.20
2023-02-15T14:15:33.359Z,29.92
2023-02-15T14:18:25.334Z,27.20
2023-02-15T14:21:11.504Z,27.42
2023-02-15T14:23:53.089Z,28.05
2023-02-15T14:26:48.558Z,31.27
2023-02-15T14:29:26.719Z,22.25
2023-02-15T14:32:03.980Z,25.73
2023-02-15T14:34:59.933Z,23.45
2023-02-15T14:37:43.341Z,19.92
2023-02-15T14:41:05.000Z,24.52
2023-02-15T14:43:56.163Z,25.73
2023-02-15T14:46:26.479Z,26.75
2023-02-15T14:49:18.239Z,28.48
2023-02-15T14:51:48.176Z,27.50
2023-02-15T14:54:21.571Z,22.58
2023-02-15T14:57:08.867Z,21.27
2023-02-15T14:59:38.809Z,30.58
2023-02-15T15:02:49.290Z,24.88
2023-02-15T15:05:27.245Z,28.00
2023-02-15T15:07:58.762Z,22.30
2023-02-15T15:10:47.047Z,27.95
2023-02-15T15:13:32.445Z,25.50
2023-02-15T15:16:38.188Z,23.02
2023-02-15T15:21:53.268Z,24.98
2023-02-15T15:24:38.414Z,26.02
2023-02-15T15:27:37.835Z,21.27
2023-02-15T15:30:20.319Z,26.33
2023-02-15T15:32:57.003Z,23.38
2023-02-15T15:35:56.456Z,24.50
2023-02-15T15:38:41.681Z,24.02
2023-02-15T15:41:38.884Z,25.67
2023-02-15T15:44:32.000Z,24.08
2023-02-15T15:47:51.277Z,24.70
2023-02-15T15:50:21.652Z,22.95
2023-02-15T15:52:55.065Z,21.50
2023-02-15T15:55:25.379Z,20.33
2023-02-15T15:58:05.879Z,20.98
2023-02-15T16:00:53.888Z,20.55
2023-02-15T16:03:27.940Z,20.10
2023-02-15T16:05:56.460Z,19.13
2023-02-15T16:08:39.996Z,22.10
2023-02-15T16:11:23.588Z,19.48
2023-02-15T16:13:51.814Z,21.23
2023-02-15T16:16:29.718Z,20.52
2023-02-15T16:19:00.513Z,22.00
2023-02-15T16:21:35.242Z,19.88
2023-02-15T16:26:48.440Z,23.35
2023-02-15T16:29:18.116Z,20.65
2023-02-15T16:31:59.384Z,19.38
2023-02-15T16:34:29.239Z,20.63
2023-02-15T16:37:14.996Z,21.20
2023-02-15T16:39:43.442Z,21.33
2023-02-15T16:42:12.588Z,20.80
2023-02-15T16:44:41.293Z,17.23
2023-02-15T16:47:41.832Z,24.27
2023-02-15T16:50:19.663Z,22.40
2023-02-15T16:52:47.136Z,19.20
2023-02-15T16:55:27.072Z,26.38
2023-02-15T16:58:00.582Z,19.70
2023-02-15T17:00:32.000Z,19.67
2023-02-15T17:03:21.766Z,18.77
2023-02-15T17:05:52.305Z,23.42
2023-02-15T17:08:31.343Z,22.00
2023-02-15T17:11:04.438Z,19.55
2023-02-15T17:13:32.147Z,21.35
2023-02-15T17:16:02.551Z,23.27
2023-02-15T17:18:37.301Z,22.63
2023-02-15T17:21:25.527Z,25.83
2023-02-15T17:23:58.380Z,23.85
2023-02-15T17:26:27.408Z,26.65
2023-02-15T17:28:57.585Z,25.92
2023-02-15T17:31:32.367Z,28.30
2023-02-15T17:34:01.546Z,28.55
2023-02-15T17:36:31.566Z,30.02
2023-02-15T17:38:58.880Z,29.05
2023-02-15T17:41:27.261Z,30.38
2023-02-15T17:43:54.973Z,31.23
2023-02-15T17:46:25.769Z,34.20
2023-02-15T17:48:55.713Z,34.00
2023-02-15T17:51:23.833Z,35.92
2023-02-15T17:54:10.561Z,37.33
2023-02-15T17:56:39.053Z,38.13
2023-02-15T17:59:11.321Z,37.47
2023-02-15T18:02:04.426Z,39.72
2023-02-15T18:04:53.814Z,41.33
2023-02-15T18:07:40.242Z,43.10
2023-02-15T18:10:34.641Z,39.25
2023-02-15T18:13:01.954Z,44.83
2023-02-15T18:15:29.525Z,44.00
2023-02-15T18:17:57.349Z,43.97
2023-02-15T18:20:36.861Z,45.55
2023-02-15T18:23:04.415Z,47.97
2023-02-15T18:25:31.693Z,44.67
2023-02-15T18:27:58.978Z,44.78
2023-02-15T18:30:26.971Z,45.15
2023-02-15T18:32:57.247Z,46.00
2023-02-15T18:35:27.793Z,44.50
2023-02-15T18:37:56.027Z,44.72
2023-02-15T18:40:27.284Z,45.50
2023-02-15T18:42:56.960Z,45.08
2023-02-15T18:45:32.531Z,48.25
2023-02-15T18:48:00.009Z,42.28
2023-02-15T18:50:32.975Z,47.63
2023-02-15T18:53:02.116Z,41.42
2023-02-15T18:55:29.782Z,61.45
2023-02-15T18:57:58.037Z,72.25
2023-02-15T19:00:32.379Z,60.30
2023-02-15T19:03:02.181Z,59.67
2023-02-15T19:05:30.614Z,56.45
2023-02-15T19:08:00.813Z,67.32
2023-02-15T19:10:31.409Z,69.65
2023-02-15T19:12:59.363Z,59.45
2023-02-15T19:15:30.423Z,56.20
2023-02-15T19:17:57.832Z,61.95
2023-02-15T19:20:38.759Z,48.53
2023-02-15T19:23:11.865Z,59.83
2023-02-15T19:25:40.594Z,52.28
2023-02-15T19:28:16.752Z,54.25
2023-02-15T19:30:44.257Z,49.15
2023-02-15T19:33:17.708Z,47.83
2023-02-15T19:35:47.754Z,60.17
2023-02-15T19:38:30.801Z,61.97
2023-02-15T19:41:04.825Z,52.00
2023-02-15T19:43:32.219Z,52.70
2023-02-15T19:45:59.524Z,56.90
2023-02-15T19:48:26.926Z,50.42
2023-02-15T19:50:56.844Z,61.05
2023-02-15T19:53:26.340Z,52.78
2023-02-15T19:55:54.197Z,56.78
2023-02-15T19:58:21.828Z,52.13
2023-02-15T20:00:51.208Z,56.15
2023-02-15T20:03:18.633Z,51.75
2023-02-15T20:05:46.889Z,55.95
2023-02-15T20:08:21.191Z,54.63
2023-02-15T20:10:48.894Z,51.15
2023-02-15T20:13:18.853Z,58.22
2023-02-15T20:15:46.886Z,63.50
2023-02-15T20:18:14.310Z,63.10
2023-02-15T20:20:55.323Z,53.95
2023-02-15T20:23:28.979Z,50.97
2023-02-15T20:26:07.165Z,58.65
2023-02-15T20:28:34.484Z,51.05
2023-02-15T20:31:02.423Z,53.20
2023-02-15T20:33:29.993Z,49.35
2023-02-15T20:35:58.565Z,48.38
2023-02-15T20:38:28.648Z,53.10
2023-02-15T20:41:15.859Z,54.65
2023-02-15T20:43:43.390Z,57.05
2023-02-15T20:46:10.742Z,59.50
2023-02-15T20:48:38.651Z,58.47
2023-02-15T20:51:11.124Z,62.53
2023-02-15T20:53:38.666Z,61.03
2023-02-15T20:56:06.117Z,62.22
2023-02-15T20:58:34.458Z,63.83
2023-02-15T21:01:02.212Z,65.47
2023-02-15T21:03:31.565Z,66.30
2023-02-15T21:05:59.353Z,66.35
2023-02-15T21:08:27.194Z,64.70
2023-02-15T21:10:55.364Z,65.55
2023-02-15T21:13:33.188Z,64.20
2023-02-15T21:16:01.138Z,63.20
2023-02-15T21:18:37.797Z,61.05
2023-02-15T21:21:06.579Z,60.45
2023-02-15T21:23:40.307Z,60.40
2023-02-15T21:26:17.280Z,63.87
2023-02-15T21:28:46.066Z,60.45
2023-02-15T21:31:21.924Z,62.90
2023-02-15T21:33:49.264Z,57.63
2023-02-15T21:36:23.915Z,59.38
2023-02-15T21:41:40.867Z,58.80
2023-02-15T21:44:38.461Z,61.10
2023-02-15T21:47:25.154Z,55.80
2023-02-15T21:49:53.050Z,56.72
2023-02-15T21:52:23.568Z,59.88
2023-02-15T21:54:50.978Z,54.60
2023-02-15T21:57:20.540Z,56.10
2023-02-15T21:59:49.336Z,55.17
2023-02-15T22:02:29.717Z,49.13
2023-02-15T22:04:58.115Z,49.15
2023-02-15T22:07:25.387Z,48.67
2023-02-15T22:09:54.280Z,54.42
2023-02-15T22:12:22.466Z,44.05
2023-02-15T22:14:56.039Z,42.28
2023-02-15T22:17:26.112Z,44.55
2023-02-15T22:19:53.789Z,46.60
2023-02-15T22:22:21.177Z,43.83
2023-02-15T22:24:48.420Z,42.22
2023-02-15T22:27:28.313Z,44.47
2023-02-15T22:29:56.230Z,43.95
2023-02-15T22:32:26.986Z,42.63
2023-02-15T22:34:54.805Z,40.47
2023-02-15T22:37:22.067Z,42.15
2023-02-15T22:39:49.369Z,41.03
2023-02-15T22:42:27.209Z,40.95
2023-02-15T22:44:57.135Z,38.97
2023-02-15T22:47:27.488Z,38.50
2023-02-15T22:49:55.181Z,40.00
2023-02-15T22:52:24.059Z,41.08
2023-02-15T22:54:51.269Z,37.05
2023-02-15T22:57:30.584Z,38.17
2023-02-15T22:59:59.402Z,37.67
2023-02-15T23:02:26.894Z,37.63
2023-02-15T23:04:54.308Z,35.88
2023-02-15T23:07:23.124Z,35.13
2023-02-15T23:09:51.262Z,35.67
2023-02-15T23:12:28.815Z,36.85
2023-02-15T23:14:57.198Z,39.20
2023-02-15T23:17:24.469Z,40.58
2023-02-15T23:19:51.692Z,35.20
2023-02-15T23:22:20.530Z,37.53
2023-02-15T23:24:52.547Z,35.50
2023-02-15T23:27:38.988Z,35.00
2023-02-15T23:30:12.907Z,33.78
2023-02-15T23:32:40.847Z,39.05
2023-02-15T23:35:15.250Z,34.65
2023-02-15T23:37:42.627Z,34.10
2023-02-15T23:40:36.362Z,35.60
2023-02-15T23:43:03.934Z,33.17
2023-02-15T23:45:36.884Z,33.88
2023-02-15T23:48:30.342Z,32.75
2023-02-15T23:50:59.013Z,33.25
2023-02-15T23:53:27.013Z,32.55
2023-02-15T23:55:54.788Z,34.15
2023-02-15T23:58:26.816Z,32.95
